Time;durP1;ratioP1;P1;durP2;ratioP2;P2;SDS_P1;SDS_P2;PMS_P1;PMS_P2;Temp;Humidity;BMP_temperature;BMP_pressure;BME280_temperature;BME280_humidity;BME280_pressure;Samples;Min_cycle;Max_cycle;Signal;HPM_P1;HPM_P2
2022/04/13 00:00:28;;;;;;;13.52;7.70;;;;;;;;;;5007608;28;20058;-66
2022/04/13 00:02:55;;;;;;;11.60;8.32;;;;;;;;;;5024969;28;20050;-66
2022/04/13 00:05:21;;;;;;;10.75;6.85;;;;;;;;;;5025019;28;20044;-66
2022/04/13 00:07:47;;;;;;;10.40;8.05;;;;;;;;;;5006853;28;20478;-66
2022/04/13 00:10:13;;;;;;;17.83;8.50;;;;;;;;;;5007353;28;20092;-66
2022/04/13 00:12:40;;;;;;;12.90;8.02;;;;;;;;;;5025354;28;20125;-66
2022/04/13 00:29:15;;;;;;;10.15;7.65;;;;;;;;;;5020690;28;20092;-66
2022/04/13 00:31:41;;;;;;;11.35;6.88;;;;;;;;;;5023889;28;20057;-67
2022/04/13 00:34:07;;;;;;;10.13;8.00;;;;;;;;;;5024447;28;20052;-66
2022/04/13 00:36:34;;;;;;;12.85;7.60;;;;;;;;;;5024591;28;20106;-66
2022/04/13 00:39:00;;;;;;;11.60;7.68;;;;;;;;;;5024696;28;20109;-66
2022/04/13 00:41:26;;;;;;;12.30;7.95;;;;;;;;;;5024786;28;20122;-66
2022/04/13 00:44:06;;;;;;;13.30;7.93;;;;;;;;;;5007088;28;20489;-66
2022/04/13 00:46:32;;;;;;;11.68;7.72;;;;;;;;;;5008702;28;20058;-66
2022/04/13 00:49:00;;;;;;;11.73;6.90;;;;;;;;;;5011087;28;20042;-66
2022/04/13 00:51:26;;;;;;;10.82;7.35;;;;;;;;;;5028643;28;20057;-66
2022/04/13 00:53:53;;;;;;;10.75;6.82;;;;;;;;;;5028505;28;20231;-66
2022/04/13 00:56:24;;;;;;;11.30;7.20;;;;;;;;;;5010854;28;20056;-66
2022/04/13 00:58:53;;;;;;;9.50;5.75;;;;;;;;;;5028317;28;20065;-67
2022/04/13 01:01:20;;;;;;;14.65;6.10;;;;;;;;;;5028125;28;20042;-66
2022/04/13 01:03:47;;;;;;;14.03;7.00;;;;;;;;;;5010354;28;20060;-66
2022/04/13 01:06:15;;;;;;;12.45;7.03;;;;;;;;;;5028273;28;20315;-66
2022/04/13 01:08:41;;;;;;;;;;;;;;;;;;5011035;28;20065;-65
2022/04/13 01:11:07;;;;;;;9.13;5.53;;;;;;;;;;5027993;28;19925;-66
2022/04/13 01:13:33;;;;;;;10.95;6.70;;;;;;;;;;5028155;28;20049;-66
2022/04/13 01:15:59;;;;;;;9.90;6.30;;;;;;;;;;5010577;28;20409;-66
2022/04/13 01:18:25;;;;;;;12.32;7.75;;;;;;;;;;5028429;28;20097;-66
2022/04/13 01:20:56;;;;;;;15.27;6.97;;;;;;;;;;5027589;28;20046;-66
2022/04/13 01:23:23;;;;;;;10.75;6.55;;;;;;;;;;5028086;28;20042;-66
2022/04/13 01:25:50;;;;;;;12.57;6.78;;;;;;;;;;5028034;28;20084;-65
2022/04/13 01:28:16;;;;;;;11.38;7.22;;;;;;;;;;5009337;28;20061;-66
2022/04/13 01:30:42;;;;;;;14.40;7.57;;;;;;;;;;5027611;28;20054;-66
2022/04/13 01:33:09;;;;;;;10.48;6.63;;;;;;;;;;5009651;28;20056;-65
2022/04/13 01:35:35;;;;;;;12.93;6.88;;;;;;;;;;5027809;28;20482;-66
2022/04/13 01:38:01;;;;;;;10.25;6.60;;;;;;;;;;5027395;28;20115;-67
2022/04/13 01:40:27;;;;;;;12.30;6.88;;;;;;;;;;5027795;28;20053;-66
2022/04/13 01:42:53;;;;;;;8.48;6.68;;;;;;;;;;5027618;28;20109;-66
2022/04/13 01:45:19;;;;;;;12.35;7.47;;;;;;;;;;5027457;28;20046;-66
2022/04/13 01:47:49;;;;;;;11.65;7.85;;;;;;;;;;5027354;28;20048;-66
2022/04/13 01:50:16;;;;;;;10.77;7.15;;;;;;;;;;5027471;28;20050;-66
2022/04/13 01:52:43;;;;;;;13.18;7.60;;;;;;;;;;5027500;28;20042;-66
2022/04/13 01:55:09;;;;;;;16.10;7.30;;;;;;;;;;5027561;28;20042;-66
2022/04/13 01:57:36;;;;;;;11.38;7.88;;;;;;;;;;5026817;28;20054;-67
2022/04/13 02:00:02;;;;;;;13.32;8.95;;;;;;;;;;5027487;28;20405;-66
2022/04/13 02:02:28;;;;;;;15.02;8.05;;;;;;;;;;5027127;28;20073;-66
2022/04/13 02:04:54;;;;;;;11.50;7.82;;;;;;;;;;5027181;28;20057;-66
2022/04/13 02:07:20;;;;;;;11.35;7.35;;;;;;;;;;5009303;28;20072;-65
2022/04/13 02:09:46;;;;;;;9.60;7.55;;;;;;;;;;5027276;28;20516;-65
2022/04/13 02:12:12;;;;;;;14.73;8.50;;;;;;;;;;5009619;28;20042;-67
2022/04/13 02:14:39;;;;;;;13.45;8.13;;;;;;;;;;5008810;28;20054;-66
2022/04/13 02:17:05;;;;;;;12.18;8.82;;;;;;;;;;5026945;28;20046;-66
2022/04/13 02:19:31;;;;;;;14.20;8.35;;;;;;;;;;5027322;28;20042;-66
2022/04/13 02:21:57;;;;;;;12.40;8.48;;;;;;;;;;5027153;28;20105;-66
2022/04/13 02:24:23;;;;;;;14.30;8.77;;;;;;;;;;5026732;28;20050;-66
2022/04/13 02:26:49;;;;;;;15.15;8.50;;;;;;;;;;5026774;28;20049;-66
2022/04/13 02:29:15;;;;;;;16.25;8.85;;;;;;;;;;5026755;28;20049;-66
2022/04/13 02:31:41;;;;;;;15.07;9.73;;;;;;;;;;5026549;28;20494;-66
2022/04/13 02:34:07;;;;;;;18.42;9.23;;;;;;;;;;5026728;28;20052;-66
2022/04/13 02:36:34;;;;;;;15.27;8.93;;;;;;;;;;5026912;28;20042;-66
2022/04/13 02:39:00;;;;;;;14.45;9.07;;;;;;;;;;5026540;28;20049;-66
2022/04/13 02:41:26;;;;;;;16.95;9.80;;;;;;;;;;5026632;28;20034;-66
2022/04/13 02:43:52;;;;;;;17.95;10.25;;;;;;;;;;5026172;28;20383;-66
2022/04/13 02:46:18;;;;;;;19.42;10.82;;;;;;;;;;5026619;28;20072;-66
2022/04/13 02:48:44;;;;;;;20.35;11.70;;;;;;;;;;5008755;28;20489;-67
2022/04/13 02:51:10;;;;;;;21.55;11.27;;;;;;;;;;5026383;28;20046;-66
2022/04/13 02:53:36;;;;;;;18.40;11.23;;;;;;;;;;5026141;28;20046;-66
2022/04/13 02:56:03;;;;;;;21.08;11.60;;;;;;;;;;5009030;28;20050;-66
2022/04/13 02:58:29;;;;;;;20.77;11.75;;;;;;;;;;5026059;28;20046;-66
2022/04/13 03:00:55;;;;;;;16.92;10.18;;;;;;;;;;5008660;28;20053;-66
2022/04/13 03:03:21;;;;;;;18.30;10.95;;;;;;;;;;5025554;28;20096;-67
2022/04/13 03:05:47;;;;;;;18.88;10.23;;;;;;;;;;5026203;28;20052;-65
2022/04/13 03:08:13;;;;;;;17.92;11.13;;;;;;;;;;5025778;28;20250;-66
2022/04/13 03:10:40;;;;;;;19.63;11.77;;;;;;;;;;5025633;28;20054;-66
2022/04/13 03:13:06;;;;;;;24.83;12.05;;;;;;;;;;5025640;28;20122;-65
2022/04/13 03:15:32;;;;;;;22.52;11.70;;;;;;;;;;5025999;28;20053;-66
2022/04/13 03:17:58;;;;;;;22.15;11.52;;;;;;;;;;5025975;28;20184;-66
2022/04/13 03:20:24;;;;;;;22.25;13.18;;;;;;;;;;5025832;28;20076;-65
2022/04/13 03:22:50;;;;;;;19.73;11.10;;;;;;;;;;5007977;28;20106;-65
2022/04/13 03:25:17;;;;;;;21.48;12.10;;;;;;;;;;5025849;28;20046;-66
2022/04/13 03:27:43;;;;;;;22.23;11.98;;;;;;;;;;5025830;28;20413;-65
2022/04/13 03:30:09;;;;;;;19.90;10.35;;;;;;;;;;5025255;28;20058;-65
2022/04/13 03:32:39;;;;;;;19.85;11.88;;;;;;;;;;5025258;28;20059;-66
2022/04/13 03:35:10;;;;;;;21.00;11.45;;;;;;;;;;5025685;28;20417;-66
2022/04/13 03:37:36;;;;;;;18.35;12.13;;;;;;;;;;5025619;28;20080;-66
2022/04/13 03:40:03;;;;;;;19.05;10.43;;;;;;;;;;5025274;28;20042;-65
2022/04/13 03:42:35;;;;;;;19.95;11.68;;;;;;;;;;5007947;28;20081;-66
2022/04/13 03:45:03;;;;;;;17.45;10.77;;;;;;;;;;5025248;28;20117;-65
2022/04/13 03:47:29;;;;;;;22.50;11.98;;;;;;;;;;5007829;28;20049;-66
2022/04/13 03:49:55;;;;;;;20.65;11.57;;;;;;;;;;5025101;28;20045;-66
2022/04/13 03:52:22;;;;;;;21.85;11.18;;;;;;;;;;5025260;28;20049;-66
2022/04/13 03:54:48;;;;;;;25.70;12.02;;;;;;;;;;5025389;28;20129;-66
2022/04/13 03:57:14;;;;;;;19.20;11.38;;;;;;;;;;5007429;28;20050;-65
2022/04/13 03:59:40;;;;;;;21.42;12.65;;;;;;;;;;5024694;28;20537;-66
2022/04/13 04:02:06;;;;;;;21.10;12.32;;;;;;;;;;5025121;28;20177;-65
2022/04/13 04:04:33;;;;;;;24.38;13.60;;;;;;;;;;5025323;28;20054;-65
2022/04/13 04:06:59;;;;;;;19.98;12.77;;;;;;;;;;5025004;28;20050;-66
2022/04/13 04:09:25;;;;;;;30.63;13.57;;;;;;;;;;5024783;28;20056;-66
2022/04/13 04:11:51;;;;;;;20.83;13.95;;;;;;;;;;5024863;28;20606;-65
2022/04/13 04:14:17;;;;;;;19.98;13.20;;;;;;;;;;5024938;28;20107;-65
2022/04/13 04:16:43;;;;;;;24.58;13.40;;;;;;;;;;5024800;28;20049;-66
2022/04/13 04:19:10;;;;;;;25.08;14.73;;;;;;;;;;4980968;28;20058;-65
2022/04/13 04:21:36;;;;;;;20.50;14.80;;;;;;;;;;5005323;28;20050;-65
2022/04/13 04:24:03;;;;;;;23.40;14.00;;;;;;;;;;5005309;28;20049;-66
2022/04/13 04:26:29;;;;;;;23.13;14.13;;;;;;;;;;4987701;28;20501;-66
2022/04/13 04:28:55;;;;;;;21.95;14.27;;;;;;;;;;5012776;28;20052;-66
2022/04/13 04:31:49;;;;;;;20.88;14.38;;;;;;;;;;5020312;28;20120;-66
2022/04/13 04:34:07;;;;;;;27.48;14.95;;;;;;;;;;5024342;28;20060;-66
2022/04/13 04:36:34;;;;;;;29.40;14.25;;;;;;;;;;5024850;28;20050;-66
2022/04/13 04:39:00;;;;;;;22.58;14.63;;;;;;;;;;5024411;28;20041;-65
2022/04/13 04:41:26;;;;;;;27.70;14.52;;;;;;;;;;5024723;28;20401;-66
2022/04/13 04:43:52;;;;;;;25.50;14.50;;;;;;;;;;5024250;28;20041;-65
2022/04/13 04:46:18;;;;;;;29.08;13.95;;;;;;;;;;5024609;28;20057;-65
2022/04/13 04:48:45;;;;;;;23.52;14.68;;;;;;;;;;5024200;28;20038;-66
2022/04/13 04:51:12;;;;;;;23.95;14.43;;;;;;;;;;5007376;28;20112;-66
2022/04/13 04:53:38;;;;;;;20.73;14.10;;;;;;;;;;5024580;28;20056;-66
2022/04/13 04:56:04;;;;;;;19.88;13.95;;;;;;;;;;5007052;28;20179;-66
2022/04/13 04:58:31;;;;;;;19.08;13.20;;;;;;;;;;5023595;28;20046;-66
2022/04/13 05:00:57;;;;;;;20.42;14.55;;;;;;;;;;5024482;28;20128;-67
2022/04/13 05:03:23;;;;;;;24.45;15.20;;;;;;;;;;5006769;28;20050;-65
2022/04/13 05:05:49;;;;;;;24.60;15.32;;;;;;;;;;5024205;28;20033;-66
2022/04/13 05:08:15;;;;;;;24.05;13.20;;;;;;;;;;5024262;28;20225;-66
2022/04/13 05:10:42;;;;;;;22.42;13.95;;;;;;;;;;5024739;28;20106;-66
2022/04/13 05:13:08;;;;;;;18.65;13.75;;;;;;;;;;5007046;28;20050;-67
2022/04/13 05:15:34;;;;;;;22.05;13.18;;;;;;;;;;5023976;28;20038;-66
2022/04/13 05:18:00;;;;;;;22.25;13.18;;;;;;;;;;5024276;28;20038;-66
2022/04/13 05:20:27;;;;;;;26.65;13.20;;;;;;;;;;5006708;28;20057;-66
2022/04/13 05:22:53;;;;;;;19.23;12.48;;;;;;;;;;5024374;28;20081;-66
2022/04/13 05:25:19;;;;;;;21.15;13.18;;;;;;;;;;5024059;28;20409;-66
2022/04/13 05:27:45;;;;;;;25.27;13.23;;;;;;;;;;5023716;28;20038;-66
2022/04/13 05:30:14;;;;;;;18.88;13.23;;;;;;;;;;5023853;28;20046;-66
2022/04/13 05:32:50;;;;;;;20.73;13.50;;;;;;;;;;5025767;28;20041;-66
2022/04/13 05:35:17;;;;;;;24.33;13.18;;;;;;;;;;5027898;28;20152;-66
2022/04/13 05:37:43;;;;;;;27.27;13.95;;;;;;;;;;5027743;28;20049;-66
2022/04/13 05:40:09;;;;;;;23.38;13.18;;;;;;;;;;5027614;28;20077;-66
2022/04/13 05:42:36;;;;;;;21.45;14.30;;;;;;;;;;5007562;28;20061;-66
2022/04/13 05:45:02;;;;;;;28.02;14.65;;;;;;;;;;5017493;28;20073;-65
2022/04/13 05:47:29;;;;;;;28.73;15.00;;;;;;;;;;5025583;28;20077;-65
2022/04/13 05:49:55;;;;;;;33.70;14.43;;;;;;;;;;5009538;28;20053;-66
2022/04/13 05:52:21;;;;;;;20.35;14.52;;;;;;;;;;5026143;28;20477;-67
2022/04/13 05:54:47;;;;;;;25.70;14.68;;;;;;;;;;5026634;28;20045;-66
2022/04/13 05:57:13;;;;;;;29.17;16.10;;;;;;;;;;5025144;28;20040;-66
2022/04/13 05:59:39;;;;;;;21.92;14.60;;;;;;;;;;5026105;28;20048;-66
2022/04/13 06:02:05;;;;;;;23.80;14.82;;;;;;;;;;5025008;28;20113;-66
2022/04/13 06:04:32;;;;;;;25.30;14.40;;;;;;;;;;5024221;28;20097;-65
2022/04/13 06:06:59;;;;;;;24.58;14.98;;;;;;;;;;5026205;28;20100;-65
2022/04/13 06:09:25;;;;;;;22.58;14.32;;;;;;;;;;5025538;28;20076;-66
2022/04/13 06:11:51;;;;;;;26.25;15.65;;;;;;;;;;5026598;28;20049;-65
2022/04/13 06:14:17;;;;;;;28.10;13.80;;;;;;;;;;5040810;28;20046;-65
2022/04/13 06:16:44;;;;;;;27.17;15.30;;;;;;;;;;5032300;28;20041;-66
2022/04/13 06:19:10;;;;;;;22.20;14.45;;;;;;;;;;5025722;28;20050;-65
2022/04/13 06:21:37;;;;;;;27.05;14.27;;;;;;;;;;5020615;28;20050;-65
2022/04/13 06:24:03;;;;;;;26.02;15.35;;;;;;;;;;5024905;28;20113;-66
2022/04/13 06:26:29;;;;;;;29.50;15.20;;;;;;;;;;5024794;28;20101;-66
2022/04/13 06:28:55;;;;;;;21.20;15.80;;;;;;;;;;5024012;28;20416;-66
2022/04/13 06:31:22;;;;;;;25.25;15.35;;;;;;;;;;5026485;28;20050;-66
2022/04/13 06:33:52;;;;;;;21.98;14.68;;;;;;;;;;5025855;28;20041;-65
2022/04/13 06:36:18;;;;;;;23.35;14.52;;;;;;;;;;5024945;28;20057;-65
2022/04/13 06:38:44;;;;;;;25.10;14.90;;;;;;;;;;5026161;28;20042;-66
2022/04/13 06:41:11;;;;;;;25.58;15.48;;;;;;;;;;5026645;28;20049;-65
2022/04/13 06:43:38;;;;;;;27.15;15.00;;;;;;;;;;5025016;28;20052;-65
2022/04/13 06:46:04;;;;;;;25.48;14.68;;;;;;;;;;5026400;28;20105;-66
2022/04/13 06:48:30;;;;;;;29.17;14.98;;;;;;;;;;5026020;28;20077;-65
2022/04/13 06:50:57;;;;;;;29.98;17.15;;;;;;;;;;5008592;28;20406;-65
2022/04/13 06:53:24;;;;;;;34.15;15.50;;;;;;;;;;5026054;28;20531;-65
2022/04/13 06:55:50;;;;;;;24.52;15.15;;;;;;;;;;5026249;28;20057;-65
2022/04/13 06:58:17;;;;;;;23.70;14.23;;;;;;;;;;5026261;28;20101;-66
2022/04/13 07:00:43;;;;;;;26.67;15.17;;;;;;;;;;5025672;28;20049;-66
2022/04/13 07:03:09;;;;;;;25.77;14.95;;;;;;;;;;5008241;28;20084;-66
2022/04/13 07:05:36;;;;;;;21.08;14.55;;;;;;;;;;5025960;28;20523;-66
2022/04/13 07:08:05;;;;;;;26.30;15.48;;;;;;;;;;5026149;28;20048;-66
2022/04/13 07:10:32;;;;;;;22.33;14.52;;;;;;;;;;5025996;28;20098;-66
2022/04/13 07:12:58;;;;;;;24.98;14.60;;;;;;;;;;5025789;28;20136;-66
2022/04/13 07:15:25;;;;;;;32.78;14.73;;;;;;;;;;5025827;28;20077;-66
2022/04/13 07:17:51;;;;;;;25.85;14.95;;;;;;;;;;5026047;28;20102;-66
2022/04/13 07:20:17;;;;;;;27.67;14.40;;;;;;;;;;5009092;28;20056;-67
2022/04/13 07:22:48;;;;;;;27.45;14.52;;;;;;;;;;5024588;28;20045;-66
2022/04/13 07:25:15;;;;;;;22.17;13.27;;;;;;;;;;5025979;28;20065;-65
2022/04/13 07:27:41;;;;;;;18.30;12.93;;;;;;;;;;5008063;28;20092;-66
2022/04/13 07:30:08;;;;;;;20.38;13.30;;;;;;;;;;5007815;28;20323;-65
2022/04/13 07:32:34;;;;;;;22.67;13.80;;;;;;;;;;5022743;28;20100;-65
2022/04/13 07:35:02;;;;;;;22.92;13.70;;;;;;;;;;5015678;28;20569;-66
2022/04/13 07:37:29;;;;;;;18.60;12.27;;;;;;;;;;5023163;28;20109;-66
2022/04/13 07:39:55;;;;;;;21.45;12.32;;;;;;;;;;5025273;28;20132;-65
2022/04/13 07:42:22;;;;;;;18.63;10.68;;;;;;;;;;5014080;28;20042;-66
2022/04/13 07:44:48;;;;;;;21.13;11.98;;;;;;;;;;5003737;28;20050;-66
2022/04/13 07:47:19;;;;;;;18.50;11.32;;;;;;;;;;5025396;28;20092;-66
2022/04/13 07:49:46;;;;;;;18.40;11.77;;;;;;;;;;5024596;28;20041;-66
2022/04/13 07:52:13;;;;;;;23.23;13.27;;;;;;;;;;5025375;28;20049;-66
2022/04/13 07:54:39;;;;;;;16.52;11.40;;;;;;;;;;5006611;28;20077;-66
2022/04/13 07:57:05;;;;;;;22.67;13.07;;;;;;;;;;5018338;28;20046;-66
2022/04/13 07:59:31;;;;;;;20.60;13.02;;;;;;;;;;5007552;28;20145;-66
2022/04/13 08:01:58;;;;;;;21.95;12.80;;;;;;;;;;5024866;28;20045;-66
2022/04/13 08:04:24;;;;;;;24.85;12.55;;;;;;;;;;5016866;28;20042;-66
2022/04/13 08:06:50;;;;;;;22.10;13.73;;;;;;;;;;5006319;28;20046;-66
2022/04/13 08:09:16;;;;;;;18.92;12.15;;;;;;;;;;5025108;28;20328;-66
2022/04/13 08:11:45;;;;;;;19.23;11.77;;;;;;;;;;5024840;28;20117;-66
2022/04/13 08:14:11;;;;;;;22.33;12.23;;;;;;;;;;5022429;28;20109;-65
2022/04/13 08:16:37;;;;;;;21.70;12.43;;;;;;;;;;5017132;28;20088;-65
2022/04/13 08:19:05;;;;;;;22.20;11.48;;;;;;;;;;5024578;28;20069;-65
2022/04/13 08:21:33;;;;;;;24.15;11.98;;;;;;;;;;5024436;28;20052;-67
2022/04/13 08:23:59;;;;;;;24.17;12.07;;;;;;;;;;5005559;28;20050;-66
2022/04/13 08:26:25;;;;;;;23.67;11.73;;;;;;;;;;5011396;28;20115;-66
2022/04/13 08:28:51;;;;;;;16.88;10.73;;;;;;;;;;5023146;28;20054;-66
2022/04/13 08:31:18;;;;;;;22.13;12.30;;;;;;;;;;5023512;28;20054;-66
2022/04/13 08:33:46;;;;;;;20.15;11.40;;;;;;;;;;5018944;28;20038;-65
2022/04/13 08:36:13;;;;;;;20.15;11.32;;;;;;;;;;5009113;28;20052;-65
2022/04/13 08:38:39;;;;;;;22.08;11.35;;;;;;;;;;5022616;28;20128;-66
2022/04/13 08:41:10;;;;;;;17.05;10.23;;;;;;;;;;5021914;28;20102;-66
2022/04/13 08:43:48;;;;;;;16.08;10.07;;;;;;;;;;5022431;28;20049;-66
2022/04/13 08:46:27;;;;;;;17.08;10.40;;;;;;;;;;5022690;28;20042;-66
2022/04/13 08:48:56;;;;;;;22.98;10.05;;;;;;;;;;5018906;28;20089;-66
2022/04/13 08:51:23;;;;;;;17.02;9.68;;;;;;;;;;5005759;28;20042;-66
2022/04/13 08:53:50;;;;;;;15.40;10.48;;;;;;;;;;5021001;28;20108;-65
2022/04/13 08:56:20;;;;;;;23.15;10.95;;;;;;;;;;5011804;28;20049;-65
2022/04/13 08:58:54;;;;;;;17.85;9.93;;;;;;;;;;5022288;28;20409;-65
2022/04/13 09:01:27;;;;;;;23.20;11.25;;;;;;;;;;5023063;28;20064;-65
2022/04/13 09:03:55;;;;;;;13.05;8.63;;;;;;;;;;5022528;28;20041;-65
2022/04/13 09:06:22;;;;;;;13.98;9.07;;;;;;;;;;5022609;28;20060;-66
2022/04/13 09:08:49;;;;;;;14.50;9.13;;;;;;;;;;5025980;28;20056;-66
2022/04/13 09:11:17;;;;;;;17.60;8.95;;;;;;;;;;5025710;28;20051;-66
2022/04/13 09:13:44;;;;;;;18.70;7.97;;;;;;;;;;5024637;28;20077;-66
2022/04/13 09:16:11;;;;;;;17.17;8.07;;;;;;;;;;5025671;28;20113;-65
2022/04/13 09:18:38;;;;;;;12.38;7.53;;;;;;;;;;5025237;28;20081;-66
2022/04/13 09:21:04;;;;;;;13.38;7.95;;;;;;;;;;5025650;28;20057;-65
2022/04/13 09:23:30;;;;;;;13.05;7.38;;;;;;;;;;5008601;28;20076;-65
2022/04/13 09:25:57;;;;;;;15.73;8.68;;;;;;;;;;5026690;28;20110;-65
2022/04/13 09:28:23;;;;;;;14.38;8.13;;;;;;;;;;5024783;28;20048;-66
2022/04/13 09:30:49;;;;;;;18.20;7.60;;;;;;;;;;4958463;28;1093425;-64
2022/04/13 09:33:15;;;;;;;16.55;8.32;;;;;;;;;;5007995;28;20050;-65
2022/04/13 09:35:41;;;;;;;15.18;7.43;;;;;;;;;;4990566;28;20471;-66
2022/04/13 09:38:08;;;;;;;17.52;7.93;;;;;;;;;;5007898;28;20050;-66
2022/04/13 09:40:38;;;;;;;17.77;8.02;;;;;;;;;;5006951;28;20050;-65
2022/04/13 09:43:08;;;;;;;13.18;7.20;;;;;;;;;;4988605;28;20050;-66
2022/04/13 09:45:43;;;;;;;17.80;6.13;;;;;;;;;;5005422;28;20046;-67
2022/04/13 09:48:10;;;;;;;14.13;5.95;;;;;;;;;;5004238;28;20129;-65
2022/04/13 09:50:37;;;;;;;16.08;6.78;;;;;;;;;;5004583;28;20058;-66
2022/04/13 09:53:05;;;;;;;12.20;6.38;;;;;;;;;;4988993;28;20450;-65
2022/04/13 09:55:33;;;;;;;14.90;6.68;;;;;;;;;;5007545;28;20046;-65
2022/04/13 09:58:04;;;;;;;15.20;6.57;;;;;;;;;;4989017;28;20054;-65
2022/04/13 10:00:30;;;;;;;11.18;6.97;;;;;;;;;;5006948;28;20115;-65
2022/04/13 10:03:06;;;;;;;19.15;7.30;;;;;;;;;;4989026;28;20121;-67
2022/04/13 10:05:32;;;;;;;11.93;7.50;;;;;;;;;;5007512;28;20059;-65
2022/04/13 10:08:08;;;;;;;9.68;6.28;;;;;;;;;;5006703;28;20072;-65
2022/04/13 10:10:35;;;;;;;13.40;6.07;;;;;;;;;;5005205;28;20042;-65
2022/04/13 10:13:01;;;;;;;10.63;4.93;;;;;;;;;;5006108;28;20069;-66
2022/04/13 10:15:27;;;;;;;11.88;5.80;;;;;;;;;;5005468;28;20054;-66
2022/04/13 10:17:58;;;;;;;10.05;5.10;;;;;;;;;;4962972;28;20062;-65
2022/04/13 10:20:28;;;;;;;8.65;3.72;;;;;;;;;;5004742;28;20062;-66
2022/04/13 10:23:01;;;;;;;7.50;4.10;;;;;;;;;;5005613;28;20397;-66
2022/04/13 10:25:28;;;;;;;8.38;4.82;;;;;;;;;;5005705;28;20074;-66
2022/04/13 10:27:55;;;;;;;9.40;3.90;;;;;;;;;;5006966;28;20047;-66
2022/04/13 10:30:24;;;;;;;8.68;3.65;;;;;;;;;;5004386;28;20057;-66
2022/04/13 10:33:00;;;;;;;9.63;4.07;;;;;;;;;;5017250;28;20072;-67
2022/04/13 10:35:27;;;;;;;8.95;4.28;;;;;;;;;;5020003;28;20041;-66
2022/04/13 10:37:55;;;;;;;9.27;4.27;;;;;;;;;;5020621;28;20553;-66
2022/04/13 10:40:22;;;;;;;8.15;3.78;;;;;;;;;;5021891;28;20057;-67
2022/04/13 10:42:50;;;;;;;6.55;3.72;;;;;;;;;;5009894;28;20065;-67
2022/04/13 10:45:16;;;;;;;9.13;3.88;;;;;;;;;;5014573;28;20046;-70
2022/04/13 10:48:01;;;;;;;8.25;4.43;;;;;;;;;;4995151;28;20187;-69
2022/04/13 10:50:30;;;;;;;11.93;4.07;;;;;;;;;;5006725;28;20053;-71
2022/04/13 10:53:00;;;;;;;7.57;4.32;;;;;;;;;;5006102;28;20053;-71
2022/04/13 10:55:27;;;;;;;9.75;4.60;;;;;;;;;;5024782;28;20132;-72
2022/04/13 10:57:54;;;;;;;7.72;4.18;;;;;;;;;;5021772;28;20528;-72
2022/04/13 11:00:21;;;;;;;6.75;3.50;;;;;;;;;;5025813;28;20050;-71
2022/04/13 11:02:50;;;;;;;10.10;3.95;;;;;;;;;;5025636;28;20077;-70
2022/04/13 11:05:16;;;;;;;8.13;3.95;;;;;;;;;;5026114;28;20042;-69
2022/04/13 11:07:43;;;;;;;5.93;2.95;;;;;;;;;;5025826;28;20061;-71
2022/04/13 11:10:12;;;;;;;8.40;4.25;;;;;;;;;;5025062;28;20049;-70
2022/04/13 11:12:38;;;;;;;7.00;3.50;;;;;;;;;;5024979;28;20080;-72
2022/04/13 11:15:05;;;;;;;9.18;3.60;;;;;;;;;;5025425;28;20049;-73
2022/04/13 11:17:31;;;;;;;8.57;3.20;;;;;;;;;;5008409;28;20045;-70
2022/04/13 11:20:16;;;;;;;6.20;3.72;;;;;;;;;;5025122;28;20045;-69
2022/04/13 11:22:43;;;;;;;7.82;3.60;;;;;;;;;;5023092;28;20158;-69
2022/04/13 11:25:09;;;;;;;8.82;2.97;;;;;;;;;;5025601;28;20101;-69
2022/04/13 11:27:51;;;;;;;6.70;4.47;;;;;;;;;;5025538;28;20048;-70
2022/04/13 11:30:18;;;;;;;13.40;3.70;;;;;;;;;;5021934;28;20053;-69
2022/04/13 11:32:45;;;;;;;8.95;4.47;;;;;;;;;;5024518;28;20050;-67
2022/04/13 11:35:25;;;;;;;8.25;4.00;;;;;;;;;;5024572;28;20050;-68
2022/04/13 11:38:08;;;;;;;7.45;4.00;;;;;;;;;;5024371;28;20038;-68
2022/04/13 11:40:34;;;;;;;12.00;5.15;;;;;;;;;;5020431;28;20054;-68
2022/04/13 11:43:02;;;;;;;10.75;5.00;;;;;;;;;;5007591;28;20177;-66
2022/04/13 11:45:29;;;;;;;9.93;4.80;;;;;;;;;;5012772;28;20409;-67
2022/04/13 11:47:58;;;;;;;15.27;6.10;;;;;;;;;;5006574;28;20065;-67
2022/04/13 11:50:25;;;;;;;13.70;5.05;;;;;;;;;;5024131;28;20056;-68
2022/04/13 11:52:52;;;;;;;12.75;5.13;;;;;;;;;;5023466;28;20044;-67
2022/04/13 11:55:26;;;;;;;9.30;4.25;;;;;;;;;;5022664;28;20112;-68
2022/04/13 11:58:02;;;;;;;7.95;4.22;;;;;;;;;;5003713;28;20045;-67
2022/04/13 12:00:50;;;;;;;12.52;4.30;;;;;;;;;;5006640;28;20079;-68
2022/04/13 12:03:26;;;;;;;9.13;3.83;;;;;;;;;;5025169;28;20053;-68
2022/04/13 12:05:54;;;;;;;9.07;3.42;;;;;;;;;;5025075;28;20495;-67
2022/04/13 12:08:22;;;;;;;9.80;2.78;;;;;;;;;;5025019;28;20049;-68
2022/04/13 12:10:49;;;;;;;9.05;3.28;;;;;;;;;;5024948;28;20042;-70
2022/04/13 12:13:15;;;;;;;;;;;;;;;;;;5024782;28;20116;-74
2022/04/13 12:15:51;;;;;;;11.85;3.10;;;;;;;;;;5024454;28;19929;-70
2022/04/13 12:18:18;;;;;;;14.40;3.60;;;;;;;;;;5007431;28;20061;-68
2022/04/13 12:20:44;;;;;;;13.65;4.50;;;;;;;;;;5017441;28;20038;-68
2022/04/13 12:23:22;;;;;;;6.90;3.20;;;;;;;;;;4996001;28;20136;-67
2022/04/13 12:25:49;;;;;;;12.85;4.28;;;;;;;;;;5018843;28;20061;-69
2022/04/13 12:28:16;;;;;;;8.77;3.92;;;;;;;;;;5023234;28;20050;-68
2022/04/13 12:30:43;;;;;;;9.48;4.10;;;;;;;;;;5019487;28;20057;-67
2022/04/13 12:33:13;;;;;;;11.88;3.83;;;;;;;;;;5024394;28;20049;-67
2022/04/13 12:35:50;;;;;;;14.48;5.20;;;;;;;;;;5006143;28;20145;-68
2022/04/13 12:38:24;;;;;;;16.08;5.03;;;;;;;;;;5015693;28;20050;-68
2022/04/13 12:40:50;;;;;;;9.50;3.90;;;;;;;;;;5019069;28;20054;-69
2022/04/13 12:43:26;;;;;;;15.20;5.07;;;;;;;;;;5028849;28;20397;-68
2022/04/13 12:45:52;;;;;;;7.72;4.10;;;;;;;;;;5024256;28;20045;-66
2022/04/13 12:48:24;;;;;;;11.82;4.32;;;;;;;;;;5028242;28;20058;-68
2022/04/13 12:51:01;;;;;;;13.48;5.05;;;;;;;;;;5026643;28;20053;-68
2022/04/13 12:53:28;;;;;;;17.80;4.93;;;;;;;;;;5018721;28;20078;-67
2022/04/13 12:55:54;;;;;;;14.05;6.03;;;;;;;;;;5021280;28;20077;-68
2022/04/13 12:58:21;;;;;;;15.43;5.10;;;;;;;;;;5010815;28;20568;-68
2022/04/13 13:00:48;;;;;;;17.30;5.55;;;;;;;;;;5027993;28;20037;-67
2022/04/13 13:03:14;;;;;;;17.85;5.68;;;;;;;;;;5010465;28;20058;-68
2022/04/13 13:05:40;;;;;;;14.18;5.22;;;;;;;;;;5027944;28;20105;-67
2022/04/13 13:08:07;;;;;;;10.98;4.15;;;;;;;;;;5010781;28;20210;-67
2022/04/13 13:10:33;;;;;;;10.15;3.10;;;;;;;;;;5027181;28;20532;-67
2022/04/13 13:13:11;;;;;;;9.20;3.10;;;;;;;;;;5027814;28;20145;-67
2022/04/13 13:15:37;;;;;;;9.32;3.50;;;;;;;;;;4991463;28;20054;-67
2022/04/13 13:18:09;;;;;;;9.80;3.35;;;;;;;;;;5027714;28;20069;-67
2022/04/13 13:20:38;;;;;;;11.65;3.80;;;;;;;;;;5027638;28;20068;-67
2022/04/13 13:23:07;;;;;;;9.80;3.22;;;;;;;;;;5027536;28;20045;-68
2022/04/13 13:25:40;;;;;;;14.73;4.13;;;;;;;;;;5018831;28;20046;-67
2022/04/13 13:28:07;;;;;;;9.52;3.60;;;;;;;;;;5027634;28;20046;-68
2022/04/13 13:30:45;;;;;;;12.05;3.58;;;;;;;;;;5027104;28;20085;-68
2022/04/13 13:33:12;;;;;;;9.65;2.88;;;;;;;;;;5009897;28;20049;-68
2022/04/13 13:35:39;;;;;;;9.73;3.33;;;;;;;;;;5022075;28;20042;-68
2022/04/13 13:38:08;;;;;;;10.57;3.45;;;;;;;;;;5026110;28;20073;-68
2022/04/13 13:40:39;;;;;;;11.52;2.72;;;;;;;;;;5025229;28;20050;-67
2022/04/13 13:43:06;;;;;;;9.00;3.03;;;;;;;;;;5027045;28;20458;-67
2022/04/13 13:45:39;;;;;;;12.90;3.72;;;;;;;;;;5027490;28;20041;-68
2022/04/13 13:48:07;;;;;;;12.18;4.00;;;;;;;;;;5009210;28;20057;-69
2022/04/13 13:50:34;;;;;;;10.93;3.13;;;;;;;;;;5027624;28;20049;-67
2022/04/13 13:53:00;;;;;;;11.10;3.97;;;;;;;;;;5026283;28;20042;-67
2022/04/13 13:55:28;;;;;;;10.77;3.97;;;;;;;;;;5027650;28;20102;-67
2022/04/13 13:57:56;;;;;;;11.48;4.13;;;;;;;;;;5008730;28;20041;-67
2022/04/13 14:00:22;;;;;;;12.65;4.43;;;;;;;;;;5021394;28;20046;-67
2022/04/13 14:02:52;;;;;;;14.48;4.13;;;;;;;;;;5016139;28;20512;-67
2022/04/13 14:05:25;;;;;;;14.02;5.43;;;;;;;;;;5012686;28;20061;-68
2022/04/13 14:07:53;;;;;;;12.85;4.68;;;;;;;;;;5027025;28;20045;-68
2022/04/13 14:10:19;;;;;;;11.63;3.65;;;;;;;;;;5026964;28;20061;-67
2022/04/13 14:12:45;;;;;;;17.30;4.93;;;;;;;;;;5027334;28;20042;-67
2022/04/13 14:15:12;;;;;;;10.75;4.35;;;;;;;;;;5009204;28;20132;-69
2022/04/13 14:17:41;;;;;;;11.53;4.23;;;;;;;;;;5022746;28;20053;-69
2022/04/13 14:20:08;;;;;;;10.73;4.60;;;;;;;;;;5010642;28;20163;-68
2022/04/13 14:22:35;;;;;;;11.23;5.10;;;;;;;;;;5017644;28;20038;-68
2022/04/13 14:25:02;;;;;;;9.75;4.70;;;;;;;;;;5007200;28;20050;-68
2022/04/13 14:27:28;;;;;;;8.95;3.80;;;;;;;;;;5007456;28;20106;-68
2022/04/13 14:29:57;;;;;;;8.02;4.03;;;;;;;;;;5021488;28;20070;-68
2022/04/13 14:32:24;;;;;;;7.32;4.40;;;;;;;;;;5026369;28;20483;-69
2022/04/13 14:34:51;;;;;;;10.60;4.40;;;;;;;;;;5026595;28;20074;-69
2022/04/13 14:37:17;;;;;;;8.63;4.25;;;;;;;;;;5009232;28;20555;-68
2022/04/13 14:39:43;;;;;;;9.30;4.05;;;;;;;;;;5024178;28;20046;-67
2022/04/13 14:42:09;;;;;;;11.35;4.82;;;;;;;;;;5021943;28;20511;-68